sensor_id;sensor_type;location;lat;lon;timestamp;temperature;humidity
81630;DHT22;71039;49.500;10.418;2023-07-29T00:02:14;20.60;66.00
81630;DHT22;71039;49.500;10.418;2023-07-29T00:04:40;20.60;66.00
81630;DHT22;71039;49.500;10.418;2023-07-29T00:07:05;20.60;66.00
81630;DHT22;71039;49.500;10.418;2023-07-29T00:09:31;20.60;66.00
81630;DHT22;71039;49.500;10.418;2023-07-29T00:11:56;20.60;66.00
81630;DHT22;71039;49.500;10.418;2023-07-29T00:14:22;20.60;66.00
81630;DHT22;71039;49.500;10.418;2023-07-29T00:16:47;20.60;65.90
81630;DHT22;71039;49.500;10.418;2023-07-29T00:19:13;20.60;65.90
81630;DHT22;71039;49.500;10.418;2023-07-29T00:21:38;20.60;65.80
81630;DHT22;71039;49.500;10.418;2023-07-29T00:24:04;20.50;65.70
81630;DHT22;71039;49.500;10.418;2023-07-29T00:26:29;20.50;65.60
81630;DHT22;71039;49.500;10.418;2023-07-29T00:28:56;20.50;65.60
81630;DHT22;71039;49.500;10.418;2023-07-29T00:31:21;20.50;65.50
81630;DHT22;71039;49.500;10.418;2023-07-29T00:33:47;20.50;65.40
81630;DHT22;71039;49.500;10.418;2023-07-29T00:36:14;20.50;65.40
81630;DHT22;71039;49.500;10.418;2023-07-29T00:38:39;20.40;65.40
81630;DHT22;71039;49.500;10.418;2023-07-29T00:41:05;20.30;65.40
81630;DHT22;71039;49.500;10.418;2023-07-29T00:43:32;20.30;65.40
81630;DHT22;71039;49.500;10.418;2023-07-29T00:45:57;20.30;65.40
81630;DHT22;71039;49.500;10.418;2023-07-29T00:48:24;20.30;65.40
81630;DHT22;71039;49.500;10.418;2023-07-29T00:50:50;20.20;65.40
81630;DHT22;71039;49.500;10.418;2023-07-29T00:53:15;20.20;65.50
81630;DHT22;71039;49.500;10.418;2023-07-29T00:55:42;20.10;65.50
81630;DHT22;71039;49.500;10.418;2023-07-29T00:58:08;20.10;65.50
81630;DHT22;71039;49.500;10.418;2023-07-29T01:00:33;20.00;65.60
81630;DHT22;71039;49.500;10.418;2023-07-29T01:02:59;20.00;65.60
81630;DHT22;71039;49.500;10.418;2023-07-29T01:05:28;20.00;65.60
81630;DHT22;71039;49.500;10.418;2023-07-29T01:08:27;20.00;65.60
81630;DHT22;71039;49.500;10.418;2023-07-29T01:11:01;19.90;66.30
81630;DHT22;71039;49.500;10.418;2023-07-29T01:13:44;19.90;65.70
81630;DHT22;71039;49.500;10.418;2023-07-29T01:16:41;19.80;66.20
81630;DHT22;71039;49.500;10.418;2023-07-29T01:19:17;19.70;66.20
81630;DHT22;71039;49.500;10.418;2023-07-29T01:21:46;19.70;65.80
81630;DHT22;71039;49.500;10.418;2023-07-29T01:24:11;19.70;65.70
81630;DHT22;71039;49.500;10.418;2023-07-29T01:26:37;19.60;65.80
81630;DHT22;71039;49.500;10.418;2023-07-29T01:29:03;19.60;65.80
81630;DHT22;71039;49.500;10.418;2023-07-29T01:31:34;19.50;65.90
81630;DHT22;71039;49.500;10.418;2023-07-29T01:34:31;19.50;65.90
81630;DHT22;71039;49.500;10.418;2023-07-29T01:36:59;19.50;66.50
81630;DHT22;71039;49.500;10.418;2023-07-29T01:39:26;19.50;65.90
81630;DHT22;71039;49.500;10.418;2023-07-29T01:41:53;19.40;65.90
81630;DHT22;71039;49.500;10.418;2023-07-29T01:44:19;19.40;66.00
81630;DHT22;71039;49.500;10.418;2023-07-29T01:46:45;19.40;66.00
81630;DHT22;71039;49.500;10.418;2023-07-29T01:49:10;19.30;66.10
81630;DHT22;71039;49.500;10.418;2023-07-29T01:51:36;19.30;66.20
81630;DHT22;71039;49.500;10.418;2023-07-29T01:54:02;19.30;66.20
81630;DHT22;71039;49.500;10.418;2023-07-29T01:56:27;19.30;66.30
81630;DHT22;71039;49.500;10.418;2023-07-29T01:58:54;19.20;66.40
81630;DHT22;71039;49.500;10.418;2023-07-29T02:01:20;19.20;66.50
81630;DHT22;71039;49.500;10.418;2023-07-29T02:03:46;19.20;66.50
81630;DHT22;71039;49.500;10.418;2023-07-29T02:06:11;19.20;66.50
81630;DHT22;71039;49.500;10.418;2023-07-29T02:08:38;19.10;66.50
81630;DHT22;71039;49.500;10.418;2023-07-29T02:11:03;19.10;66.50
81630;DHT22;71039;49.500;10.418;2023-07-29T02:13:29;19.10;66.60
81630;DHT22;71039;49.500;10.418;2023-07-29T02:15:54;19.10;66.60
81630;DHT22;71039;49.500;10.418;2023-07-29T02:18:20;19.00;66.70
81630;DHT22;71039;49.500;10.418;2023-07-29T02:20:46;19.00;66.70
81630;DHT22;71039;49.500;10.418;2023-07-29T02:23:11;19.00;66.70
81630;DHT22;71039;49.500;10.418;2023-07-29T02:25:37;19.00;66.80
81630;DHT22;71039;49.500;10.418;2023-07-29T02:28:03;18.90;66.80
81630;DHT22;71039;49.500;10.418;2023-07-29T02:30:28;18.90;66.90
81630;DHT22;71039;49.500;10.418;2023-07-29T02:32:55;18.90;66.90
81630;DHT22;71039;49.500;10.418;2023-07-29T02:35:20;18.90;66.90
81630;DHT22;71039;49.500;10.418;2023-07-29T02:37:46;18.90;67.00
81630;DHT22;71039;49.500;10.418;2023-07-29T02:40:12;18.90;67.10
81630;DHT22;71039;49.500;10.418;2023-07-29T02:42:38;18.90;67.10
81630;DHT22;71039;49.500;10.418;2023-07-29T02:45:03;18.80;67.20
81630;DHT22;71039;49.500;10.418;2023-07-29T02:47:29;18.80;67.20
81630;DHT22;71039;49.500;10.418;2023-07-29T02:49:55;18.80;67.20
81630;DHT22;71039;49.500;10.418;2023-07-29T02:52:20;18.80;67.30
81630;DHT22;71039;49.500;10.418;2023-07-29T02:54:46;18.80;67.30
81630;DHT22;71039;49.500;10.418;2023-07-29T02:57:13;18.80;67.40
81630;DHT22;71039;49.500;10.418;2023-07-29T02:59:39;18.80;67.40
81630;DHT22;71039;49.500;10.418;2023-07-29T03:02:04;18.70;67.40
81630;DHT22;71039;49.500;10.418;2023-07-29T03:04:30;18.70;67.50
81630;DHT22;71039;49.500;10.418;2023-07-29T03:06:55;18.70;67.50
81630;DHT22;71039;49.500;10.418;2023-07-29T03:09:21;18.70;67.50
81630;DHT22;71039;49.500;10.418;2023-07-29T03:11:46;18.70;67.50
81630;DHT22;71039;49.500;10.418;2023-07-29T03:14:12;18.70;67.60
81630;DHT22;71039;49.500;10.418;2023-07-29T03:16:38;18.70;67.70
81630;DHT22;71039;49.500;10.418;2023-07-29T03:19:03;18.70;67.80
81630;DHT22;71039;49.500;10.418;2023-07-29T03:21:29;18.70;67.90
81630;DHT22;71039;49.500;10.418;2023-07-29T03:23:54;18.70;68.00
81630;DHT22;71039;49.500;10.418;2023-07-29T03:26:20;18.70;68.00
81630;DHT22;71039;49.500;10.418;2023-07-29T03:28:45;18.70;68.10
81630;DHT22;71039;49.500;10.418;2023-07-29T03:31:11;18.80;68.20
81630;DHT22;71039;49.500;10.418;2023-07-29T03:33:37;18.80;68.20
81630;DHT22;71039;49.500;10.418;2023-07-29T03:36:02;18.80;68.30
81630;DHT22;71039;49.500;10.418;2023-07-29T03:38:28;18.80;68.40
81630;DHT22;71039;49.500;10.418;2023-07-29T03:40:54;18.80;68.50
81630;DHT22;71039;49.500;10.418;2023-07-29T03:43:19;18.80;68.50
81630;DHT22;71039;49.500;10.418;2023-07-29T03:45:45;18.90;68.60
81630;DHT22;71039;49.500;10.418;2023-07-29T03:48:11;18.90;68.60
81630;DHT22;71039;49.500;10.418;2023-07-29T03:50:37;18.90;68.70
81630;DHT22;71039;49.500;10.418;2023-07-29T03:53:03;19.00;68.70
81630;DHT22;71039;49.500;10.418;2023-07-29T03:55:29;19.00;68.70
81630;DHT22;71039;49.500;10.418;2023-07-29T03:57:54;19.00;68.70
81630;DHT22;71039;49.500;10.418;2023-07-29T04:00:20;19.10;68.70
81630;DHT22;71039;49.500;10.418;2023-07-29T04:02:48;19.10;68.70
81630;DHT22;71039;49.500;10.418;2023-07-29T04:05:13;19.10;68.80
81630;DHT22;71039;49.500;10.418;2023-07-29T04:07:39;19.10;68.80
81630;DHT22;71039;49.500;10.418;2023-07-29T04:10:06;19.20;68.80
81630;DHT22;71039;49.500;10.418;2023-07-29T04:12:32;19.20;68.70
81630;DHT22;71039;49.500;10.418;2023-07-29T04:14:57;19.30;68.70
81630;DHT22;71039;49.500;10.418;2023-07-29T04:17:23;19.30;68.70
81630;DHT22;71039;49.500;10.418;2023-07-29T04:19:48;19.30;68.70
81630;DHT22;71039;49.500;10.418;2023-07-29T04:22:16;19.40;68.60
81630;DHT22;71039;49.500;10.418;2023-07-29T04:24:41;19.40;68.60
81630;DHT22;71039;49.500;10.418;2023-07-29T04:27:07;19.40;68.60
81630;DHT22;71039;49.500;10.418;2023-07-29T04:29:32;19.50;68.60
81630;DHT22;71039;49.500;10.418;2023-07-29T04:31:58;19.50;68.70
81630;DHT22;71039;49.500;10.418;2023-07-29T04:34:23;19.50;68.70
81630;DHT22;71039;49.500;10.418;2023-07-29T04:36:49;19.50;68.70
81630;DHT22;71039;49.500;10.418;2023-07-29T04:39:15;19.50;68.70
81630;DHT22;71039;49.500;10.418;2023-07-29T04:41:40;19.60;68.60
81630;DHT22;71039;49.500;10.418;2023-07-29T04:44:06;19.70;68.60
81630;DHT22;71039;49.500;10.418;2023-07-29T04:46:32;19.70;68.60
81630;DHT22;71039;49.500;10.418;2023-07-29T04:48:58;19.70;68.60
81630;DHT22;71039;49.500;10.418;2023-07-29T04:51:24;19.70;68.60
81630;DHT22;71039;49.500;10.418;2023-07-29T04:53:50;19.80;68.70
81630;DHT22;71039;49.500;10.418;2023-07-29T04:56:16;19.90;68.70
81630;DHT22;71039;49.500;10.418;2023-07-29T04:58:41;19.90;68.70
81630;DHT22;71039;49.500;10.418;2023-07-29T05:01:07;19.90;68.70
81630;DHT22;71039;49.500;10.418;2023-07-29T05:03:33;20.00;68.70
81630;DHT22;71039;49.500;10.418;2023-07-29T05:05:59;20.00;68.70
81630;DHT22;71039;49.500;10.418;2023-07-29T05:08:29;20.00;68.60
81630;DHT22;71039;49.500;10.418;2023-07-29T05:10:55;20.10;68.50
81630;DHT22;71039;49.500;10.418;2023-07-29T05:13:22;20.10;68.50
81630;DHT22;71039;49.500;10.418;2023-07-29T05:15:48;20.20;68.40
81630;DHT22;71039;49.500;10.418;2023-07-29T05:18:15;20.30;68.40
81630;DHT22;71039;49.500;10.418;2023-07-29T05:20:40;20.30;68.40
81630;DHT22;71039;49.500;10.418;2023-07-29T05:23:06;20.30;68.40
81630;DHT22;71039;49.500;10.418;2023-07-29T05:25:32;20.30;68.40
81630;DHT22;71039;49.500;10.418;2023-07-29T05:27:57;20.30;68.40
81630;DHT22;71039;49.500;10.418;2023-07-29T05:30:23;20.40;68.40
81630;DHT22;71039;49.500;10.418;2023-07-29T05:32:49;20.50;68.30
81630;DHT22;71039;49.500;10.418;2023-07-29T05:35:14;20.50;68.20
81630;DHT22;71039;49.500;10.418;2023-07-29T05:37:40;20.50;68.20
81630;DHT22;71039;49.500;10.418;2023-07-29T05:40:07;20.50;68.20
81630;DHT22;71039;49.500;10.418;2023-07-29T05:42:33;20.60;68.10
81630;DHT22;71039;49.500;10.418;2023-07-29T05:44:59;20.60;68.00
81630;DHT22;71039;49.500;10.418;2023-07-29T05:47:25;20.60;68.00
81630;DHT22;71039;49.500;10.418;2023-07-29T05:49:50;20.60;67.90
81630;DHT22;71039;49.500;10.418;2023-07-29T05:52:16;20.70;67.90
81630;DHT22;71039;49.500;10.418;2023-07-29T05:54:42;20.70;67.80
81630;DHT22;71039;49.500;10.418;2023-07-29T05:57:08;20.70;67.80
81630;DHT22;71039;49.500;10.418;2023-07-29T05:59:34;20.70;67.80
81630;DHT22;71039;49.500;10.418;2023-07-29T06:01:59;20.70;67.70
81630;DHT22;71039;49.500;10.418;2023-07-29T06:04:25;20.70;67.70
81630;DHT22;71039;49.500;10.418;2023-07-29T06:06:50;20.70;67.70
81630;DHT22;71039;49.500;10.418;2023-07-29T06:09:16;20.80;67.70
81630;DHT22;71039;49.500;10.418;2023-07-29T06:11:42;20.80;67.70
81630;DHT22;71039;49.500;10.418;2023-07-29T06:14:07;20.80;67.70
81630;DHT22;71039;49.500;10.418;2023-07-29T06:16:33;20.80;67.70
81630;DHT22;71039;49.500;10.418;2023-07-29T06:18:58;20.80;67.70
81630;DHT22;71039;49.500;10.418;2023-07-29T06:21:24;20.80;67.70
81630;DHT22;71039;49.500;10.418;2023-07-29T06:23:49;20.80;67.70
81630;DHT22;71039;49.500;10.418;2023-07-29T06:26:15;20.80;67.60
81630;DHT22;71039;49.500;10.418;2023-07-29T06:28:40;20.80;67.60
81630;DHT22;71039;49.500;10.418;2023-07-29T06:31:06;20.90;67.60
81630;DHT22;71039;49.500;10.418;2023-07-29T06:33:31;20.90;67.50
81630;DHT22;71039;49.500;10.418;2023-07-29T06:35:57;20.90;67.50
81630;DHT22;71039;49.500;10.418;2023-07-29T06:38:23;20.90;67.50
81630;DHT22;71039;49.500;10.418;2023-07-29T06:40:48;20.80;67.50
81630;DHT22;71039;49.500;10.418;2023-07-29T06:43:14;20.90;67.50
81630;DHT22;71039;49.500;10.418;2023-07-29T06:45:40;20.90;67.50
81630;DHT22;71039;49.500;10.418;2023-07-29T06:48:05;20.90;67.60
81630;DHT22;71039;49.500;10.418;2023-07-29T06:50:31;20.80;67.60
81630;DHT22;71039;49.500;10.418;2023-07-29T06:52:56;20.80;67.60
81630;DHT22;71039;49.500;10.418;2023-07-29T06:55:22;20.90;67.70
81630;DHT22;71039;49.500;10.418;2023-07-29T06:57:47;20.80;67.80
81630;DHT22;71039;49.500;10.418;2023-07-29T07:00:13;20.80;67.90
81630;DHT22;71039;49.500;10.418;2023-07-29T07:02:39;20.90;68.00
81630;DHT22;71039;49.500;10.418;2023-07-29T07:05:04;20.90;68.10
81630;DHT22;71039;49.500;10.418;2023-07-29T07:07:30;20.90;68.20
81630;DHT22;71039;49.500;10.418;2023-07-29T07:09:56;20.90;68.30
81630;DHT22;71039;49.500;10.418;2023-07-29T07:12:21;20.90;68.20
81630;DHT22;71039;49.500;10.418;2023-07-29T07:14:47;20.90;68.20
81630;DHT22;71039;49.500;10.418;2023-07-29T07:17:13;20.90;68.20
81630;DHT22;71039;49.500;10.418;2023-07-29T07:19:39;20.90;68.20
81630;DHT22;71039;49.500;10.418;2023-07-29T07:22:04;21.00;68.30
81630;DHT22;71039;49.500;10.418;2023-07-29T07:24:30;21.00;68.40
81630;DHT22;71039;49.500;10.418;2023-07-29T07:26:55;21.00;68.50
81630;DHT22;71039;49.500;10.418;2023-07-29T07:29:21;21.00;68.50
81630;DHT22;71039;49.500;10.418;2023-07-29T07:31:51;21.00;68.50
81630;DHT22;71039;49.500;10.418;2023-07-29T07:34:17;21.00;68.50
81630;DHT22;71039;49.500;10.418;2023-07-29T07:36:42;21.00;68.40
81630;DHT22;71039;49.500;10.418;2023-07-29T07:39:08;21.10;68.40
81630;DHT22;71039;49.500;10.418;2023-07-29T07:41:33;21.10;68.50
81630;DHT22;71039;49.500;10.418;2023-07-29T07:43:59;21.10;68.70
81630;DHT22;71039;49.500;10.418;2023-07-29T07:46:24;21.10;68.80
81630;DHT22;71039;49.500;10.418;2023-07-29T07:48:50;21.10;69.00
81630;DHT22;71039;49.500;10.418;2023-07-29T07:51:15;21.10;69.00
81630;DHT22;71039;49.500;10.418;2023-07-29T07:53:41;21.20;69.00
81630;DHT22;71039;49.500;10.418;2023-07-29T07:56:06;21.30;69.00
81630;DHT22;71039;49.500;10.418;2023-07-29T07:58:32;21.30;68.90
81630;DHT22;71039;49.500;10.418;2023-07-29T08:01:09;21.30;69.00
81630;DHT22;71039;49.500;10.418;2023-07-29T08:03:35;21.40;69.20
81630;DHT22;71039;49.500;10.418;2023-07-29T08:06:02;21.40;68.80
81630;DHT22;71039;49.500;10.418;2023-07-29T08:08:28;21.40;68.70
81630;DHT22;71039;49.500;10.418;2023-07-29T08:10:54;21.50;68.70
81630;DHT22;71039;49.500;10.418;2023-07-29T08:13:21;21.50;68.60
81630;DHT22;71039;49.500;10.418;2023-07-29T08:15:47;21.50;68.60
81630;DHT22;71039;49.500;10.418;2023-07-29T08:18:13;21.50;68.60
81630;DHT22;71039;49.500;10.418;2023-07-29T08:20:39;21.50;68.70
81630;DHT22;71039;49.500;10.418;2023-07-29T08:23:04;21.60;68.80
81630;DHT22;71039;49.500;10.418;2023-07-29T08:25:30;21.70;68.70
81630;DHT22;71039;49.500;10.418;2023-07-29T08:27:55;21.70;68.70
81630;DHT22;71039;49.500;10.418;2023-07-29T08:30:21;21.70;68.70
81630;DHT22;71039;49.500;10.418;2023-07-29T08:32:46;21.70;68.80
81630;DHT22;71039;49.500;10.418;2023-07-29T08:35:12;21.80;68.80
81630;DHT22;71039;49.500;10.418;2023-07-29T08:37:37;21.90;68.70
81630;DHT22;71039;49.500;10.418;2023-07-29T08:40:03;21.90;68.70
81630;DHT22;71039;49.500;10.418;2023-07-29T08:42:31;21.90;68.80
81630;DHT22;71039;49.500;10.418;2023-07-29T08:45:06;22.00;68.80
81630;DHT22;71039;49.500;10.418;2023-07-29T08:47:31;22.00;68.90
81630;DHT22;71039;49.500;10.418;2023-07-29T08:49:58;22.10;68.80
81630;DHT22;71039;49.500;10.418;2023-07-29T08:52:24;22.10;68.70
81630;DHT22;71039;49.500;10.418;2023-07-29T08:54:51;22.10;68.80
81630;DHT22;71039;49.500;10.418;2023-07-29T08:57:17;22.20;68.60
81630;DHT22;71039;49.500;10.418;2023-07-29T08:59:43;22.30;68.50
81630;DHT22;71039;49.500;10.418;2023-07-29T09:02:09;22.40;68.60
81630;DHT22;71039;49.500;10.418;2023-07-29T09:04:34;22.50;69.20
81630;DHT22;71039;49.500;10.418;2023-07-29T09:07:00;22.50;69.60
81630;DHT22;71039;49.500;10.418;2023-07-29T09:09:26;22.60;69.50
81630;DHT22;71039;49.500;10.418;2023-07-29T09:11:51;22.80;70.40
81630;DHT22;71039;49.500;10.418;2023-07-29T09:14:17;23.00;70.90
81630;DHT22;71039;49.500;10.418;2023-07-29T09:16:43;23.10;70.90
81630;DHT22;71039;49.500;10.418;2023-07-29T09:19:09;23.30;71.20
81630;DHT22;71039;49.500;10.418;2023-07-29T09:21:38;23.60;72.60
81630;DHT22;71039;49.500;10.418;2023-07-29T09:24:04;23.90;73.40
81630;DHT22;71039;49.500;10.418;2023-07-29T09:26:30;24.20;73.70
81630;DHT22;71039;49.500;10.418;2023-07-29T09:28:58;24.60;72.40
81630;DHT22;71039;49.500;10.418;2023-07-29T09:31:25;25.00;70.90
81630;DHT22;71039;49.500;10.418;2023-07-29T09:33:56;25.20;69.40
81630;DHT22;71039;49.500;10.418;2023-07-29T09:36:22;25.50;68.30
81630;DHT22;71039;49.500;10.418;2023-07-29T09:38:47;25.70;67.90
81630;DHT22;71039;49.500;10.418;2023-07-29T09:41:13;26.00;67.40
81630;DHT22;71039;49.500;10.418;2023-07-29T09:43:40;26.10;66.60
81630;DHT22;71039;49.500;10.418;2023-07-29T09:46:06;26.30;65.90
81630;DHT22;71039;49.500;10.418;2023-07-29T09:48:35;26.50;65.10
81630;DHT22;71039;49.500;10.418;2023-07-29T09:51:13;26.60;64.40
81630;DHT22;71039;49.500;10.418;2023-07-29T09:53:46;26.70;63.90
81630;DHT22;71039;49.500;10.418;2023-07-29T09:56:12;26.80;63.80
81630;DHT22;71039;49.500;10.418;2023-07-29T09:58:38;26.90;63.60
81630;DHT22;71039;49.500;10.418;2023-07-29T10:01:08;27.00;63.40
81630;DHT22;71039;49.500;10.418;2023-07-29T10:03:34;27.10;63.10
81630;DHT22;71039;49.500;10.418;2023-07-29T10:06:05;27.20;62.90
81630;DHT22;71039;49.500;10.418;2023-07-29T10:08:31;27.30;62.90
81630;DHT22;71039;49.500;10.418;2023-07-29T10:11:10;27.50;62.40
81630;DHT22;71039;49.500;10.418;2023-07-29T10:13:37;27.50;61.50
81630;DHT22;71039;49.500;10.418;2023-07-29T10:16:03;27.70;61.20
81630;DHT22;71039;49.500;10.418;2023-07-29T10:18:30;27.70;60.80
81630;DHT22;71039;49.500;10.418;2023-07-29T10:20:57;27.80;60.30
81630;DHT22;71039;49.500;10.418;2023-07-29T10:23:24;27.80;59.90
81630;DHT22;71039;49.500;10.418;2023-07-29T10:25:57;27.80;59.80
81630;DHT22;71039;49.500;10.418;2023-07-29T10:28:25;27.80;59.70
81630;DHT22;71039;49.500;10.418;2023-07-29T10:30:52;27.90;59.80
81630;DHT22;71039;49.500;10.418;2023-07-29T10:33:18;27.90;59.70
81630;DHT22;71039;49.500;10.418;2023-07-29T10:35:43;27.90;59.60
81630;DHT22;71039;49.500;10.418;2023-07-29T10:38:09;27.90;59.30
81630;DHT22;71039;49.500;10.418;2023-07-29T10:40:49;28.00;58.90
81630;DHT22;71039;49.500;10.418;2023-07-29T10:43:24;28.00;58.30
81630;DHT22;71039;49.500;10.418;2023-07-29T10:45:49;27.90;58.30
81630;DHT22;71039;49.500;10.418;2023-07-29T10:54:00;27.80;56.80
81630;DHT22;71039;49.500;10.418;2023-07-29T10:56:36;27.70;57.60
81630;DHT22;71039;49.500;10.418;2023-07-29T11:01:50;27.50;57.90
81630;DHT22;71039;49.500;10.418;2023-07-29T11:04:25;27.50;58.30
81630;DHT22;71039;49.500;10.418;2023-07-29T11:09:54;27.50;58.20
81630;DHT22;71039;49.500;10.418;2023-07-29T11:17:37;27.70;58.20
81630;DHT22;71039;49.500;10.418;2023-07-29T11:20:04;27.70;58.00
81630;DHT22;71039;49.500;10.418;2023-07-29T11:22:30;27.70;57.70
81630;DHT22;71039;49.500;10.418;2023-07-29T11:24:56;27.70;57.50
81630;DHT22;71039;49.500;10.418;2023-07-29T11:27:22;27.80;57.60
81630;DHT22;71039;49.500;10.418;2023-07-29T11:29:48;27.80;57.80
81630;DHT22;71039;49.500;10.418;2023-07-29T11:32:14;27.80;58.00
81630;DHT22;71039;49.500;10.418;2023-07-29T11:34:41;27.90;57.80
81630;DHT22;71039;49.500;10.418;2023-07-29T11:37:08;27.90;57.60
81630;DHT22;71039;49.500;10.418;2023-07-29T11:39:38;28.00;57.70
81630;DHT22;71039;49.500;10.418;2023-07-29T11:42:04;28.00;57.60
81630;DHT22;71039;49.500;10.418;2023-07-29T11:44:30;28.10;57.90
81630;DHT22;71039;49.500;10.418;2023-07-29T11:46:56;28.30;57.70
81630;DHT22;71039;49.500;10.418;2023-07-29T11:49:21;28.40;57.40
81630;DHT22;71039;49.500;10.418;2023-07-29T11:51:47;28.50;56.90
81630;DHT22;71039;49.500;10.418;2023-07-29T11:54:12;28.60;56.60
81630;DHT22;71039;49.500;10.418;2023-07-29T11:56:38;28.70;56.40
81630;DHT22;71039;49.500;10.418;2023-07-29T11:59:04;28.90;56.30
81630;DHT22;71039;49.500;10.418;2023-07-29T12:01:29;28.90;56.20
81630;DHT22;71039;49.500;10.418;2023-07-29T12:03:57;29.00;56.00
81630;DHT22;71039;49.500;10.418;2023-07-29T12:06:23;29.20;55.90
81630;DHT22;71039;49.500;10.418;2023-07-29T12:08:49;29.20;55.60
81630;DHT22;71039;49.500;10.418;2023-07-29T12:11:14;29.30;55.80
81630;DHT22;71039;49.500;10.418;2023-07-29T12:13:41;29.50;55.30
81630;DHT22;71039;49.500;10.418;2023-07-29T12:16:07;29.60;54.40
81630;DHT22;71039;49.500;10.418;2023-07-29T12:18:33;29.70;53.90
81630;DHT22;71039;49.500;10.418;2023-07-29T12:20:59;29.80;53.50
81630;DHT22;71039;49.500;10.418;2023-07-29T12:23:25;29.90;53.20
81630;DHT22;71039;49.500;10.418;2023-07-29T12:25:56;29.90;52.90
81630;DHT22;71039;49.500;10.418;2023-07-29T12:28:22;30.00;52.50
81630;DHT22;71039;49.500;10.418;2023-07-29T12:30:48;30.00;52.30
81630;DHT22;71039;49.500;10.418;2023-07-29T12:33:30;30.00;52.10
81630;DHT22;71039;49.500;10.418;2023-07-29T12:35:55;30.00;51.00
81630;DHT22;71039;49.500;10.418;2023-07-29T12:38:22;30.00;51.70
81630;DHT22;71039;49.500;10.418;2023-07-29T12:40:47;29.90;51.90
81630;DHT22;71039;49.500;10.418;2023-07-29T12:43:13;29.90;51.90
81630;DHT22;71039;49.500;10.418;2023-07-29T12:45:38;29.90;51.80
81630;DHT22;71039;49.500;10.418;2023-07-29T12:48:04;30.00;51.70
81630;DHT22;71039;49.500;10.418;2023-07-29T12:50:30;30.00;51.50
81630;DHT22;71039;49.500;10.418;2023-07-29T12:52:55;30.00;51.50
81630;DHT22;71039;49.500;10.418;2023-07-29T12:55:21;30.00;51.50
81630;DHT22;71039;49.500;10.418;2023-07-29T12:57:46;30.00;51.40
81630;DHT22;71039;49.500;10.418;2023-07-29T13:00:12;30.10;51.20
81630;DHT22;71039;49.500;10.418;2023-07-29T13:02:38;30.10;50.70
81630;DHT22;71039;49.500;10.418;2023-07-29T13:05:03;30.10;50.70
81630;DHT22;71039;49.500;10.418;2023-07-29T13:07:29;30.10;50.50
81630;DHT22;71039;49.500;10.418;2023-07-29T13:09:55;30.10;50.70
81630;DHT22;71039;49.500;10.418;2023-07-29T13:12:20;30.10;50.80
81630;DHT22;71039;49.500;10.418;2023-07-29T13:14:46;30.10;50.70
81630;DHT22;71039;49.500;10.418;2023-07-29T13:17:11;30.10;50.40
81630;DHT22;71039;49.500;10.418;2023-07-29T13:19:37;30.20;50.30
81630;DHT22;71039;49.500;10.418;2023-07-29T13:22:02;30.20;50.10
81630;DHT22;71039;49.500;10.418;2023-07-29T13:24:28;30.20;50.00
81630;DHT22;71039;49.500;10.418;2023-07-29T13:26:53;30.20;49.80
81630;DHT22;71039;49.500;10.418;2023-07-29T13:29:19;30.20;49.70
81630;DHT22;71039;49.500;10.418;2023-07-29T13:31:44;30.20;49.60
81630;DHT22;71039;49.500;10.418;2023-07-29T13:34:10;30.20;49.40
81630;DHT22;71039;49.500;10.418;2023-07-29T13:36:35;30.20;49.50
81630;DHT22;71039;49.500;10.418;2023-07-29T13:39:01;30.20;49.40
81630;DHT22;71039;49.500;10.418;2023-07-29T13:41:26;30.20;49.10
81630;DHT22;71039;49.500;10.418;2023-07-29T13:43:52;30.20;48.80
81630;DHT22;71039;49.500;10.418;2023-07-29T13:46:17;30.20;48.70
81630;DHT22;71039;49.500;10.418;2023-07-29T13:48:43;30.10;48.50
81630;DHT22;71039;49.500;10.418;2023-07-29T13:51:08;30.10;48.40
81630;DHT22;71039;49.500;10.418;2023-07-29T13:53:34;30.10;48.50
81630;DHT22;71039;49.500;10.418;2023-07-29T13:55:59;30.10;48.50
81630;DHT22;71039;49.500;10.418;2023-07-29T13:58:25;30.10;48.40
81630;DHT22;71039;49.500;10.418;2023-07-29T14:00:50;30.10;48.20
81630;DHT22;71039;49.500;10.418;2023-07-29T14:03:16;30.10;48.20
81630;DHT22;71039;49.500;10.418;2023-07-29T14:05:41;30.10;48.20
81630;DHT22;71039;49.500;10.418;2023-07-29T14:08:07;30.10;48.10
81630;DHT22;71039;49.500;10.418;2023-07-29T14:10:33;30.00;48.00
81630;DHT22;71039;49.500;10.418;2023-07-29T14:12:58;30.00;47.80
81630;DHT22;71039;49.500;10.418;2023-07-29T14:15:24;30.00;47.80
81630;DHT22;71039;49.500;10.418;2023-07-29T14:17:49;30.00;48.00
81630;DHT22;71039;49.500;10.418;2023-07-29T14:20:15;30.00;47.90
81630;DHT22;71039;49.500;10.418;2023-07-29T14:22:40;30.00;47.90
81630;DHT22;71039;49.500;10.418;2023-07-29T14:25:07;30.00;47.90
81630;DHT22;71039;49.500;10.418;2023-07-29T14:27:32;30.00;48.00
81630;DHT22;71039;49.500;10.418;2023-07-29T14:29:58;30.00;47.90
81630;DHT22;71039;49.500;10.418;2023-07-29T14:32:23;30.00;47.70
81630;DHT22;71039;49.500;10.418;2023-07-29T14:34:49;30.00;47.70
81630;DHT22;71039;49.500;10.418;2023-07-29T14:37:15;30.00;47.70
81630;DHT22;71039;49.500;10.418;2023-07-29T14:39:40;30.00;47.50
81630;DHT22;71039;49.500;10.418;2023-07-29T14:42:06;30.00;47.10
81630;DHT22;71039;49.500;10.418;2023-07-29T14:44:31;30.00;47.00
81630;DHT22;71039;49.500;10.418;2023-07-29T14:46:57;30.00;46.80
81630;DHT22;71039;49.500;10.418;2023-07-29T14:49:22;30.00;46.60
81630;DHT22;71039;49.500;10.418;2023-07-29T14:51:48;30.00;46.30
81630;DHT22;71039;49.500;10.418;2023-07-29T14:54:13;30.00;46.20
81630;DHT22;71039;49.500;10.418;2023-07-29T14:56:39;30.00;45.80
81630;DHT22;71039;49.500;10.418;2023-07-29T14:59:04;30.00;45.70
81630;DHT22;71039;49.500;10.418;2023-07-29T15:01:30;30.00;45.70
81630;DHT22;71039;49.500;10.418;2023-07-29T15:03:56;30.00;45.50
81630;DHT22;71039;49.500;10.418;2023-07-29T15:06:21;30.00;45.40
81630;DHT22;71039;49.500;10.418;2023-07-29T15:08:47;29.90;45.40
81630;DHT22;71039;49.500;10.418;2023-07-29T15:11:12;29.90;45.30
81630;DHT22;71039;49.500;10.418;2023-07-29T15:13:38;29.90;45.00
81630;DHT22;71039;49.500;10.418;2023-07-29T15:16:03;29.90;44.80
81630;DHT22;71039;49.500;10.418;2023-07-29T15:18:29;29.90;44.80
81630;DHT22;71039;49.500;10.418;2023-07-29T15:20:55;29.90;44.70
81630;DHT22;71039;49.500;10.418;2023-07-29T15:23:20;29.80;44.50
81630;DHT22;71039;49.500;10.418;2023-07-29T15:25:46;29.70;44.40
81630;DHT22;71039;49.500;10.418;2023-07-29T15:28:11;29.70;44.60